Kem'- Port, Russia
Current Conditions -  °F | °C
As of 11:50 AM on Saturday 25 Oct 2014 (Local Time) from EFKS Reporting Station
Light Snow Light Snow  
Wind Chill: 22°   Ceiling: 800
Heat Index: 30°   Visibility: 2.8mi
Dew Point: 28°   Wind: 9mph
Humidity: 93%   Direction: 160°SSE
Pressure: 29.97"   Gusts: NA
Location:  64.98°N, 34.8°E
Report Text: EFKS 250850Z AUTO 16008KT 4500 -SN OVC008 M01/M02 Q1015
Loading
Personal Weather Stations






























Interactive Weather Map
Tropical Storm Tracking
New forecast layout! Learn more

10-Day Weather Forecast

Advertisements
Track Severe Weather on mobile